Terminal Aerodrome Forecast
Issued by NWS Omaha/Valley, NE

Home | Current Version | Previous Version | Text Only | Print | Product List | Glossary Off
Versions: 1 2 3 4 5 6 7 8 9 10 11 12 13 14 15 16 17 18 19 20 21 22 23 24 25 26 27 28 29 30 31 32 33 34 35 36

000
FTUS43 KOAX 181605 AAA
TAFOFK
TAF AMD
KOFK 181605Z 1816/1912 10005KT 4SM -SHRA SCT015 OVC025
      TEMPO 1816/1818 P6SM NSW SCT025 OVC090
     FM181800 18008KT P6SM OVC045
     FM190100 16005KT P6SM OVC100
     FM191000 32013G20KT P6SM OVC025=

USA.gov is the U.S. government's official web portal to all federal, state and local government web resources and services.